Terminal Aerodrome Forecast
Issued by NWS

Current Version | Previous Version | Text Only | Print | Product List | Glossary On
Versions: 1 2 3 4 5 6 7 8 9 10 11 12 13 14 15 16 17
000
FTUS44 KMAF 301700 RRA
TAFPEQ
TAF
KPEQ 301743Z 3018/3118 08009KT 6SM -RA BR BKN035
     FM302100 08010KT 5SM -RA BR OVC030
     FM310700 08009KT 3SM -RA BR OVC010=

USA.gov is the U.S. government's official web portal to all federal, state and local government web resources and services.